Tampa, FL

4:42 AM EDT on May 24, 2015 (GMT -0400)
Town and Country Hospital Area - KJ4LCL | | Change Station
CLOSE
Current Station
Personal Weather Station
Location: Town 'n' Country, FL
Elevation: 20 ft
Nearby Weather Stations

Elev 20 ft 28.01 °N, 82.57 °W | Updated 8 seconds ago

Partly Cloudy
Partly Cloudy
74.5 °F
Feels Like 74 °F
N
0.0
Wind Variable Wind from NNW
Gusts 0.0 mph

Today
High -- | Low -- °F
--% Chance of Precip.
Yesterday
High -- | Low -- °F
Precip. -- in
6:36 AM 8:17 PM
Waxing Crescent, 37% visible
Pressure 30.18 in
Visibility 10.0 miles
Clouds Few 1800 ft
Few 11000 ft
Heat Index 74 °F
Dew Point 70 °F
Humidity 86%
Rainfall 0.00 in
Snow Depth Not available.
UV 0 out of 12
Pollen 5.60 out of 12
Air Quality Not available.
Flu Activity Sporadic
METAR KTPA 240753Z 06004KT 10SM FEW018 FEW110 25/22 A3018 RMK AO2 SLP219 T02500217

More Conditions Fewer Conditions

Pressure 30.18 in
Visibility 10.0 miles
Clouds Few 1800 ft
Few 11000 ft
Heat Index 74 °F
Dew Point 70 °F
Humidity 86%
Rainfall 0.00 in
Snow Depth Not available.
UV 0 out of 12
Pollen 5.60 out of 12
Air Quality Not available.
Flu Activity Sporadic
METAR KTPA 240753Z 06004KT 10SM FEW018 FEW110 25/22 A3018 RMK AO2 SLP219 T02500217

More Conditions Fewer Conditions

10-Day Weather Forecast

Almanac

Astronomy

May. 24, 2015 Rise Set
Actual Time
Civil Twilight
Nautical Twilight
Astronomical Twilight
Moon
Length of Visible Light
Length of Day
Tomorrow will be .
, % of the Moon is Illuminated

Today's Extremes

State Highs State Lows

Community

WunderPhotos

Upload Photos

1,823,698 photos uploaded!

WunderBlogs® & News

Nearby

Air Quality

  Air Quality AQ Index Pollutant
Not available.

Snow Depth

Station Depth Elevation

Earthquake Activity

City Distance Mag. Time & Date
Minimum magnitude displayed is 2.5.

Coastal Water Temperatures

Place Temperature

Stations

Nearby Weather Stations

Station Location Temp. Windchill Dew Point Humidity Wind Precip. Elev Updated Type